Time,TemperatureF,DewpointF,PressureIn,WindDirection,WindDirectionDegrees,WindSpeedMPH,WindSpeedGustMPH,Humidity,HourlyPrecipIn,Conditions,Clouds,dailyrainin,SoftwareType,DateUTC
2013-07-20 00:04:00,80.1,77.9,29.77,SW,232,2.0,7.0,93,0.00,,CLR,0.00,VWS V14.00,2013-07-20 04:04:00,
2013-07-20 00:05:00,80.1,77.9,29.77,WSW,240,0.0,2.0,93,0.00,,CLR,0.00,VWS V14.00,2013-07-20 04:05:00,
2013-07-20 00:10:00,80.1,77.9,29.77,WSW,239,0.0,4.0,93,0.00,,CLR,0.00,VWS V14.00,2013-07-20 04:10:00,
2013-07-20 00:15:00,79.9,78.0,29.77,WSW,245,1.0,4.0,94,0.00,,CLR,0.00,VWS V14.00,2013-07-20 04:15:00,
2013-07-20 00:20:00,79.9,77.7,29.77,West,277,3.0,4.0,93,0.00,,CLR,0.00,VWS V14.00,2013-07-20 04:20:00,
2013-07-20 00:25:00,79.9,77.7,29.76,SSW,197,2.0,7.0,93,0.00,,CLR,0.00,VWS V14.00,2013-07-20 04:25:00,
2013-07-20 00:30:00,79.9,77.7,29.77,SSW,213,1.0,7.0,93,0.00,,CLR,0.00,VWS V14.00,2013-07-20 04:30:00,
2013-07-20 00:35:00,79.9,77.7,29.76,SSW,207,2.0,4.0,93,0.00,,CLR,0.00,VWS V14.00,2013-07-20 04:35:00,
2013-07-20 00:40:00,79.7,77.2,29.76,SSW,196,1.0,4.0,92,0.00,,CLR,0.00,VWS V14.00,2013-07-20 04:40:00,
2013-07-20 00:45:00,79.7,77.2,29.77,WSW,248,2.0,4.0,92,0.00,,CLR,0.00,VWS V14.00,2013-07-20 04:45:00,
2013-07-20 00:50:00,79.7,77.2,29.76,North,356,1.0,5.0,92,0.00,,CLR,0.00,VWS V14.00,2013-07-20 04:50:00,
2013-07-20 00:55:00,79.9,77.4,29.76,WNW,300,0.0,5.0,92,0.00,,CLR,0.00,VWS V14.00,2013-07-20 04:55:00,
2013-07-20 01:00:00,79.9,77.4,29.76,WSW,241,1.0,2.0,92,0.00,,CLR,0.00,VWS V14.00,2013-07-20 05:00:00,
2013-07-20 01:05:00,79.9,77.4,29.76,SSW,192,1.0,4.0,92,0.00,,CLR,0.00,VWS V14.00,2013-07-20 05:05:00,
2013-07-20 01:10:00,79.9,77.4,29.76,South,184,3.0,6.0,92,0.00,,CLR,0.00,VWS V14.00,2013-07-20 05:10:00,
2013-07-20 01:15:00,79.9,77.4,29.77,SSW,194,1.0,6.0,92,0.00,,CLR,0.00,VWS V14.00,2013-07-20 05:15:00,
2013-07-20 01:20:00,79.9,77.4,29.77,SSW,194,1.0,6.0,92,0.00,,CLR,0.00,VWS V14.00,2013-07-20 05:20:00,
2013-07-20 01:25:00,79.8,77.3,29.77,SSW,194,1.0,6.0,92,0.00,,CLR,0.00,VWS V14.00,2013-07-20 05:25:00,
2013-07-20 01:30:00,79.5,77.0,29.77,SSW,194,0.0,0.0,92,0.00,,CLR,0.00,VWS V14.00,2013-07-20 05:30:00,
2013-07-20 01:35:00,79.5,77.0,29.77,SSW,194,3.0,5.0,92,0.00,,CLR,0.00,VWS V14.00,2013-07-20 05:35:00,
2013-07-20 01:40:00,79.3,77.1,29.76,SSW,194,1.0,5.0,93,0.00,,CLR,0.00,VWS V14.00,2013-07-20 05:40:00,
2013-07-20 01:45:00,79.2,77.0,29.77,SSW,194,1.0,5.0,93,0.00,,CLR,0.00,VWS V14.00,2013-07-20 05:45:00,
2013-07-20 01:50:00,79.2,77.0,29.77,SSW,195,0.0,5.0,93,0.00,,CLR,0.00,VWS V14.00,2013-07-20 05:50:00,
2013-07-20 01:55:00,79.2,77.0,29.77,SSW,195,3.0,5.0,93,0.00,,CLR,0.00,VWS V14.00,2013-07-20 05:55:00,
2013-07-20 02:00:00,79.2,77.3,29.77,SSW,196,0.0,5.0,94,0.00,,CLR,0.00,VWS V14.00,2013-07-20 06:00:00,
2013-07-20 02:05:00,79.0,77.1,29.77,NW,309,0.0,6.0,94,0.00,,FEW035,0.00,VWS V14.00,2013-07-20 06:05:00,
2013-07-20 02:10:00,78.8,76.9,29.77,NW,309,2.0,6.0,94,0.00,,FEW035,0.00,VWS V14.00,2013-07-20 06:10:00,
2013-07-20 02:15:00,78.6,76.7,29.76,NW,309,1.0,6.0,94,0.00,,FEW035,0.00,VWS V14.00,2013-07-20 06:15:00,
2013-07-20 02:20:00,78.2,76.7,29.76,NW,309,1.0,6.0,95,0.00,,FEW035,0.00,VWS V14.00,2013-07-20 06:20:00,
2013-07-20 02:25:00,78.0,76.5,29.76,WNW,300,0.0,6.0,95,0.00,,FEW035,0.00,VWS V14.00,2013-07-20 06:25:00,
2013-07-20 02:30:00,78.1,76.9,29.76,WNW,301,1.0,6.0,96,0.00,,FEW035,0.00,VWS V14.00,2013-07-20 06:30:00,
2013-07-20 02:35:00,78.1,76.6,29.76,WNW,301,0.0,2.0,95,0.00,,FEW035,0.00,VWS V14.00,2013-07-20 06:35:00,
2013-07-20 02:40:00,77.9,76.4,29.76,WNW,300,0.0,2.0,95,0.00,,FEW035,0.00,VWS V14.00,2013-07-20 06:40:00,
2013-07-20 02:45:00,77.9,76.7,29.76,WNW,300,0.0,3.0,96,0.00,,FEW035,0.00,VWS V14.00,2013-07-20 06:45:00,
2013-07-20 02:50:00,77.5,76.3,29.76,WNW,301,1.0,3.0,96,0.00,,FEW035,0.00,VWS V14.00,2013-07-20 06:50:00,
2013-07-20 02:55:00,77.3,76.1,29.75,WNW,301,2.0,3.0,96,0.00,,FEW035,0.00,VWS V14.00,2013-07-20 06:55:00,
2013-07-20 03:00:00,77.2,76.0,29.75,WNW,301,2.0,3.0,96,0.00,,FEW035,0.00,VWS V14.00,2013-07-20 07:00:00,
2013-07-20 03:05:00,77.2,76.3,29.75,WNW,300,1.0,3.0,97,0.00,,CLR,0.00,VWS V14.00,2013-07-20 07:05:00,
2013-07-20 03:10:00,77.0,76.1,29.75,WNW,300,3.0,3.0,97,0.00,,CLR,0.00,VWS V14.00,2013-07-20 07:10:00,
2013-07-20 03:15:00,77.0,76.1,29.75,WNW,300,2.0,3.0,97,0.00,,CLR,0.00,VWS V14.00,2013-07-20 07:15:00,
2013-07-20 03:20:00,76.8,76.5,29.74,WNW,301,1.0,3.0,99,0.00,,CLR,0.00,VWS V14.00,2013-07-20 07:20:00,
2013-07-20 03:25:00,76.8,76.5,29.75,WNW,301,0.0,3.0,99,0.00,,CLR,0.00,VWS V14.00,2013-07-20 07:25:00,
2013-07-20 03:30:00,76.6,76.3,29.75,WNW,300,0.0,3.0,99,0.00,,CLR,0.00,VWS V14.00,2013-07-20 07:30:00,
2013-07-20 03:35:00,76.6,76.3,29.75,WNW,300,1.0,2.0,99,0.00,,CLR,0.00,VWS V14.00,2013-07-20 07:35:00,
2013-07-20 03:40:00,76.4,76.1,29.75,WNW,300,3.0,3.0,99,0.00,,CLR,0.00,VWS V14.00,2013-07-20 07:40:00,
2013-07-20 03:45:00,76.3,76.3,29.75,WNW,300,1.0,3.0,100,0.00,,CLR,0.00,VWS V14.00,2013-07-20 07:45:00,
2013-07-20 03:50:00,76.3,76.3,29.74,WNW,300,3.0,3.0,100,0.00,,CLR,0.00,VWS V14.00,2013-07-20 07:50:00,
2013-07-20 03:55:00,76.3,76.3,29.74,WNW,300,2.0,3.0,100,0.00,,CLR,0.00,VWS V14.00,2013-07-20 07:55:00,
2013-07-20 04:00:00,76.3,76.3,29.74,WNW,300,3.0,3.0,100,0.00,,CLR,0.00,VWS V14.00,2013-07-20 08:00:00,
2013-07-20 04:05:00,76.1,76.1,29.74,WNW,300,1.0,3.0,100,0.00,,CLR,0.00,VWS V14.00,2013-07-20 08:05:00,
2013-07-20 04:10:00,76.1,76.1,29.74,WNW,300,1.0,3.0,100,0.00,,CLR,0.00,VWS V14.00,2013-07-20 08:10:00,
2013-07-20 04:15:00,76.1,76.1,29.74,WNW,300,0.0,3.0,100,0.00,,CLR,0.00,VWS V14.00,2013-07-20 08:15:00,
2013-07-20 04:20:00,76.1,76.1,29.75,WNW,300,0.0,3.0,100,0.00,,CLR,0.00,VWS V14.00,2013-07-20 08:20:00,
2013-07-20 04:25:00,76.1,76.1,29.75,WNW,300,1.0,3.0,100,0.00,,CLR,0.00,VWS V14.00,2013-07-20 08:25:00,
2013-07-20 04:30:00,75.9,75.9,29.74,WNW,300,2.0,2.0,100,0.00,,CLR,0.00,VWS V14.00,2013-07-20 08:30:00,
2013-07-20 04:35:00,75.9,75.9,29.74,WNW,300,3.0,3.0,100,0.00,,CLR,0.00,VWS V14.00,2013-07-20 08:35:00,
2013-07-20 04:40:00,75.9,75.9,29.74,WNW,293,0.0,4.0,100,0.00,,CLR,0.00,VWS V14.00,2013-07-20 08:40:00,
2013-07-20 04:45:00,75.9,75.9,29.74,WNW,286,3.0,4.0,100,0.00,,CLR,0.00,VWS V14.00,2013-07-20 08:45:00,
2013-07-20 04:50:00,76.1,76.1,29.74,West,275,2.0,4.0,100,0.00,,CLR,0.00,VWS V14.00,2013-07-20 08:50:00,
2013-07-20 04:55:00,76.1,76.1,29.73,West,274,2.0,4.0,100,0.00,,CLR,0.00,VWS V14.00,2013-07-20 08:55:00,
2013-07-20 05:00:00,76.1,76.1,29.73,West,273,1.0,4.0,100,0.00,,CLR,0.00,VWS V14.00,2013-07-20 09:00:00,
2013-07-20 05:05:00,76.1,76.1,29.73,West,273,1.0,2.0,100,0.00,,,0.00,VWS V14.00,2013-07-20 09:05:00,
2013-07-20 05:10:00,76.1,76.1,29.73,West,273,0.0,2.0,100,0.00,,,0.00,VWS V14.00,2013-07-20 09:10:00,
2013-07-20 05:15:00,75.9,75.9,29.73,West,273,2.0,3.0,100,0.00,,,0.00,VWS V14.00,2013-07-20 09:15:00,
2013-07-20 05:20:00,75.9,75.9,29.73,West,273,2.0,3.0,100,0.00,,,0.00,VWS V14.00,2013-07-20 09:20:00,
2013-07-20 05:25:00,75.7,75.7,29.74,West,273,2.0,3.0,100,0.00,,,0.00,VWS V14.00,2013-07-20 09:25:00,
2013-07-20 05:30:00,75.6,75.6,29.74,West,273,0.0,3.0,100,0.00,,,0.00,VWS V14.00,2013-07-20 09:30:00,
2013-07-20 05:35:00,75.6,75.6,29.74,West,273,1.0,3.0,100,0.00,,,0.00,VWS V14.00,2013-07-20 09:35:00,
2013-07-20 05:40:00,75.4,75.4,29.73,West,273,1.0,3.0,100,0.00,,,0.00,VWS V14.00,2013-07-20 09:40:00,
2013-07-20 05:45:00,75.4,75.4,29.74,West,273,1.0,4.0,100,0.00,,,0.00,VWS V14.00,2013-07-20 09:45:00,
2013-07-20 05:50:00,75.4,75.4,29.73,West,273,1.0,4.0,100,0.00,,,0.00,VWS V14.00,2013-07-20 09:50:00,
2013-07-20 05:55:00,75.4,75.4,29.73,WSW,243,2.0,5.0,100,0.00,,,0.00,VWS V14.00,2013-07-20 09:55:00,
2013-07-20 06:00:00,75.4,75.4,29.74,WSW,238,1.0,5.0,100,0.00,,,0.00,VWS V14.00,2013-07-20 10:00:00,
2013-07-20 06:05:00,75.4,75.4,29.74,WSW,238,1.0,3.0,100,0.00,,,0.00,VWS V14.00,2013-07-20 10:05:00,
2013-07-20 06:10:00,75.4,75.4,29.74,WSW,238,0.0,3.0,100,0.00,,,0.00,VWS V14.00,2013-07-20 10:10:00,
2013-07-20 06:15:00,75.4,75.4,29.74,WSW,239,3.0,3.0,100,0.00,,,0.00,VWS V14.00,2013-07-20 10:15:00,
2013-07-20 06:20:00,75.4,75.4,29.75,WSW,241,1.0,4.0,100,0.00,,,0.00,VWS V14.00,2013-07-20 10:20:00,
2013-07-20 06:25:00,75.4,75.4,29.74,WSW,241,2.0,4.0,100,0.00,,,0.00,VWS V14.00,2013-07-20 10:25:00,
2013-07-20 06:30:00,75.6,75.6,29.75,WSW,241,0.0,4.0,100,0.00,,,0.00,VWS V14.00,2013-07-20 10:30:00,
2013-07-20 06:35:00,75.6,75.6,29.75,WSW,241,1.0,3.0,100,0.00,,,0.00,VWS V14.00,2013-07-20 10:35:00,
2013-07-20 06:40:00,75.6,75.6,29.74,WSW,241,2.0,3.0,100,0.00,,,0.00,VWS V14.00,2013-07-20 10:40:00,
2013-07-20 06:45:00,75.8,75.8,29.75,WSW,241,2.0,3.0,100,0.00,,,0.00,VWS V14.00,2013-07-20 10:45:00,
2013-07-20 06:50:00,75.9,75.9,29.74,SSE,157,1.0,5.0,100,0.00,,,0.00,VWS V14.00,2013-07-20 10:50:00,
2013-07-20 06:55:00,75.9,75.9,29.75,SW,233,1.0,5.0,100,0.00,,,0.00,VWS V14.00,2013-07-20 10:55:00,
2013-07-20 07:00:00,76.1,76.1,29.74,SSW,207,1.0,5.0,100,0.00,,,0.00,VWS V14.00,2013-07-20 11:00:00,
2013-07-20 07:05:00,76.3,76.3,29.75,SSW,207,0.0,3.0,100,0.00,,,0.00,VWS V14.00,2013-07-20 11:05:00,
2013-07-20 07:10:00,76.5,76.5,29.75,SSW,207,1.0,3.0,100,0.00,,,0.00,VWS V14.00,2013-07-20 11:10:00,
2013-07-20 07:15:00,76.8,76.8,29.75,South,185,1.0,4.0,100,0.00,,,0.00,VWS V14.00,2013-07-20 11:15:00,
2013-07-20 07:20:00,77.0,77.0,29.75,South,186,1.0,4.0,100,0.00,,,0.00,VWS V14.00,2013-07-20 11:20:00,
2013-07-20 07:25:00,77.3,77.3,29.75,South,186,0.0,4.0,100,0.00,,,0.00,VWS V14.00,2013-07-20 11:25:00,
2013-07-20 07:30:00,77.6,77.6,29.75,SSW,192,1.0,5.0,100,0.00,,,0.00,VWS V14.00,2013-07-20 11:30:00,
2013-07-20 07:35:00,77.9,77.9,29.75,SSW,192,3.0,3.0,100,0.00,,,0.00,VWS V14.00,2013-07-20 11:35:00,
2013-07-20 07:40:00,78.2,78.2,29.75,SW,219,1.0,4.0,100,0.00,,,0.00,VWS V14.00,2013-07-20 11:40:00,
2013-07-20 07:45:00,78.6,78.6,29.75,West,262,0.0,6.0,100,0.00,,,0.00,VWS V14.00,2013-07-20 11:45:00,
2013-07-20 07:50:00,79.0,78.7,29.75,West,266,1.0,6.0,99,0.00,,,0.00,VWS V14.00,2013-07-20 11:50:00,
2013-07-20 07:55:00,79.2,78.9,29.75,West,264,1.0,6.0,99,0.00,,,0.00,VWS V14.00,2013-07-20 11:55:00,
2013-07-20 08:00:00,79.4,78.8,29.75,NNW,345,1.0,6.0,98,0.00,,,0.00,VWS V14.00,2013-07-20 12:00:00,
2013-07-20 08:05:00,79.7,79.1,29.75,North,358,1.0,4.0,98,0.00,,,0.00,VWS V14.00,2013-07-20 12:05:00,
2013-07-20 08:10:00,79.9,79.0,29.75,NNW,342,0.0,5.0,97,0.00,,,0.00,VWS V14.00,2013-07-20 12:10:00,
2013-07-20 08:15:00,80.1,79.2,29.76,NNW,338,1.0,5.0,97,0.00,,,0.00,VWS V14.00,2013-07-20 12:15:00,
2013-07-20 08:20:00,80.5,79.3,29.75,NNW,338,1.0,5.0,96,0.00,,,0.00,VWS V14.00,2013-07-20 12:20:00,
2013-07-20 08:25:00,81.0,79.4,29.75,WSW,249,0.0,5.0,95,0.00,,,0.00,VWS V14.00,2013-07-20 12:25:00,
2013-07-20 08:30:00,81.4,79.5,29.75,WSW,250,3.0,5.0,94,0.00,,,0.00,VWS V14.00,2013-07-20 12:30:00,
2013-07-20 08:35:00,82.0,80.1,29.75,South,188,2.0,4.0,94,0.00,,,0.00,VWS V14.00,2013-07-20 12:35:00,
2013-07-20 08:39:00,82.2,79.7,29.75,South,188,4.0,5.0,92,0.00,,,0.00,VWS V14.00,2013-07-20 12:39:00,
2013-07-20 08:44:00,82.3,79.4,29.75,ESE,103,1.0,5.0,91,0.00,,,0.00,VWS V14.00,2013-07-20 12:44:00,
2013-07-20 08:49:00,82.5,79.3,29.74,WSW,240,2.0,5.0,90,0.00,,,0.00,VWS V14.00,2013-07-20 12:49:00,
2013-07-20 08:54:00,82.7,79.5,29.74,WSW,246,1.0,5.0,90,0.00,,,0.00,VWS V14.00,2013-07-20 12:54:00,
2013-07-20 08:59:00,83.2,80.0,29.74,WSW,246,1.0,5.0,90,0.00,,,0.00,VWS V14.00,2013-07-20 12:59:00,
2013-07-20 09:04:00,83.7,80.1,29.74,WSW,247,0.0,3.0,89,0.00,,CLR,0.00,VWS V14.00,2013-07-20 13:04:00,
2013-07-20 09:09:00,84.7,80.8,29.74,WSW,247,1.0,3.0,88,0.00,,CLR,0.00,VWS V14.00,2013-07-20 13:09:00,
2013-07-20 09:14:00,85.3,81.0,29.74,WSW,247,0.0,3.0,87,0.00,,CLR,0.00,VWS V14.00,2013-07-20 13:14:00,
2013-07-20 09:19:00,86.1,80.7,29.74,WSW,250,1.0,6.0,84,0.00,,CLR,0.00,VWS V14.00,2013-07-20 13:19:00,
2013-07-20 09:24:00,86.3,81.3,29.73,NW,307,3.0,6.0,85,0.00,,CLR,0.00,VWS V14.00,2013-07-20 13:24:00,
2013-07-20 09:29:00,86.7,81.3,29.73,NW,308,1.0,6.0,84,0.00,,CLR,0.00,VWS V14.00,2013-07-20 13:29:00,
2013-07-20 09:34:00,86.9,81.1,29.73,WSW,241,1.0,5.0,83,0.00,,CLR,0.00,VWS V14.00,2013-07-20 13:34:00,
2013-07-20 09:39:00,86.9,80.7,29.73,WNW,285,1.0,5.0,82,0.00,,CLR,0.00,VWS V14.00,2013-07-20 13:39:00,
2013-07-20 09:44:00,86.9,80.4,29.73,WNW,285,1.0,5.0,81,0.00,,CLR,0.00,VWS V14.00,2013-07-20 13:44:00,
2013-07-20 09:49:00,87.2,80.3,29.73,NNW,343,2.0,5.0,80,0.00,,CLR,0.00,VWS V14.00,2013-07-20 13:49:00,
2013-07-20 09:54:00,87.3,80.4,29.73,NNW,343,1.0,5.0,80,0.00,,CLR,0.00,VWS V14.00,2013-07-20 13:54:00,
2013-07-20 09:59:00,87.3,80.8,29.73,WSW,239,3.0,6.0,81,0.00,,CLR,0.00,VWS V14.00,2013-07-20 13:59:00,
2013-07-20 10:04:00,87.3,81.1,29.73,SW,228,0.0,3.0,82,0.00,,CLR,0.00,VWS V14.00,2013-07-20 14:04:00,
2013-07-20 10:09:00,87.6,81.1,29.73,South,177,1.0,6.0,81,0.00,,CLR,0.00,VWS V14.00,2013-07-20 14:09:00,
2013-07-20 10:14:00,87.1,80.2,29.73,ENE,76,1.0,6.0,80,0.00,,CLR,0.00,VWS V14.00,2013-07-20 14:14:00,
2013-07-20 10:19:00,86.9,80.0,29.73,North,354,1.0,6.0,80,0.00,,CLR,0.00,VWS V14.00,2013-07-20 14:19:00,
2013-07-20 10:24:00,86.9,80.4,29.72,WNW,297,1.0,6.0,81,0.00,,CLR,0.00,VWS V14.00,2013-07-20 14:24:00,
2013-07-20 10:29:00,86.9,80.0,29.73,WNW,296,1.0,6.0,80,0.00,,CLR,0.00,VWS V14.00,2013-07-20 14:29:00,
2013-07-20 10:34:00,86.9,80.0,29.73,NNW,330,1.0,5.0,80,0.00,,CLR,0.00,VWS V14.00,2013-07-20 14:34:00,
2013-07-20 10:39:00,86.7,80.2,29.72,NNW,330,2.0,5.0,81,0.00,,CLR,0.00,VWS V14.00,2013-07-20 14:39:00,
2013-07-20 10:44:00,86.5,80.3,29.72,NNW,330,1.0,5.0,82,0.00,,CLR,0.00,VWS V14.00,2013-07-20 14:44:00,
2013-07-20 10:49:00,86.5,79.6,29.72,NNW,331,2.0,5.0,80,0.00,,CLR,0.00,VWS V14.00,2013-07-20 14:49:00,
2013-07-20 10:54:00,86.5,79.6,29.72,NNW,331,1.0,5.0,80,0.00,,CLR,0.00,VWS V14.00,2013-07-20 14:54:00,
2013-07-20 10:59:00,86.7,79.8,29.72,NNW,332,2.0,5.0,80,0.00,,CLR,0.00,VWS V14.00,2013-07-20 14:59:00,
2013-07-20 11:04:00,87.2,80.3,29.71,NNW,332,1.0,3.0,80,0.00,,CLR,0.00,VWS V14.00,2013-07-20 15:04:00,
2013-07-20 11:09:00,87.7,80.8,29.71,NW,319,1.0,3.0,80,0.00,,CLR,0.00,VWS V14.00,2013-07-20 15:09:00,
2013-07-20 11:14:00,88.4,80.7,29.72,NNW,329,1.0,4.0,78,0.00,,CLR,0.00,VWS V14.00,2013-07-20 15:14:00,
2013-07-20 11:19:00,88.8,80.7,29.72,NW,310,2.0,5.0,77,0.00,,CLR,0.00,VWS V14.00,2013-07-20 15:19:00,
2013-07-20 11:24:00,89.2,80.2,29.72,West,271,1.0,5.0,75,0.00,,CLR,0.00,VWS V14.00,2013-07-20 15:24:00,
2013-07-20 11:29:00,89.4,80.0,29.72,WSW,241,2.0,5.0,74,0.00,,CLR,0.00,VWS V14.00,2013-07-20 15:29:00,
2013-07-20 11:34:00,89.0,79.6,29.72,NW,322,1.0,6.0,74,0.00,,CLR,0.00,VWS V14.00,2013-07-20 15:34:00,
2013-07-20 11:39:00,89.2,79.8,29.72,North,349,2.0,6.0,74,0.00,,CLR,0.00,VWS V14.00,2013-07-20 15:39:00,
2013-07-20 11:44:00,89.0,79.6,29.72,NNW,332,2.0,6.0,74,0.00,,CLR,0.00,VWS V14.00,2013-07-20 15:44:00,
2013-07-20 11:49:00,88.4,79.9,29.72,West,261,1.0,6.0,76,0.00,,CLR,0.00,VWS V14.00,2013-07-20 15:49:00,
2013-07-20 11:54:00,88.0,79.9,29.71,West,259,1.0,6.0,77,0.00,,CLR,0.00,VWS V14.00,2013-07-20 15:54:00,
2013-07-20 11:59:00,87.5,79.4,29.71,West,275,1.0,6.0,77,0.00,,CLR,0.00,VWS V14.00,2013-07-20 15:59:00,
2013-07-20 12:04:00,87.3,79.6,29.70,West,272,1.0,4.0,78,0.00,,CLR,0.00,VWS V14.00,2013-07-20 16:04:00,
2013-07-20 12:09:00,87.1,79.4,29.70,West,272,0.0,4.0,78,0.00,,CLR,0.00,VWS V14.00,2013-07-20 16:09:00,
2013-07-20 12:14:00,87.2,79.5,29.70,West,267,1.0,4.0,78,0.00,,CLR,0.00,VWS V14.00,2013-07-20 16:14:00,
2013-07-20 12:19:00,87.4,80.1,29.70,West,269,1.0,4.0,79,0.00,,CLR,0.00,VWS V14.00,2013-07-20 16:19:00,
2013-07-20 12:24:00,87.3,79.2,29.70,SSW,203,3.0,6.0,77,0.00,,CLR,0.00,VWS V14.00,2013-07-20 16:24:00,
2013-07-20 12:29:00,87.3,80.0,29.70,South,184,2.0,6.0,79,0.00,,CLR,0.00,VWS V14.00,2013-07-20 16:29:00,
2013-07-20 12:34:00,87.5,80.2,29.70,South,186,1.0,3.0,79,0.00,,CLR,0.00,VWS V14.00,2013-07-20 16:34:00,
2013-07-20 12:39:00,87.7,80.4,29.70,South,183,0.0,3.0,79,0.00,,CLR,0.00,VWS V14.00,2013-07-20 16:39:00,
2013-07-20 12:44:00,88.2,80.5,29.69,SSW,192,2.0,4.0,78,0.00,,CLR,0.00,VWS V14.00,2013-07-20 16:44:00,
2013-07-20 12:49:00,88.1,80.4,29.70,SW,234,0.0,4.0,78,0.00,,CLR,0.00,VWS V14.00,2013-07-20 16:49:00,
2013-07-20 12:54:00,88.4,79.9,29.70,WSW,256,3.0,5.0,76,0.00,,CLR,0.00,VWS V14.00,2013-07-20 16:54:00,
2013-07-20 12:59:00,88.4,79.5,29.70,NNW,347,2.0,5.0,75,0.00,,CLR,0.00,VWS V14.00,2013-07-20 16:59:00,
2013-07-20 13:04:00,88.1,79.2,29.70,NNW,347,1.0,3.0,75,0.00,,SCT150,0.00,VWS V14.00,2013-07-20 17:04:00,
2013-07-20 13:09:00,88.0,79.1,29.69,North,351,2.0,5.0,75,0.00,,SCT150,0.00,VWS V14.00,2013-07-20 17:09:00,
2013-07-20 13:14:00,88.0,79.5,29.69,NNW,333,2.0,5.0,76,0.00,,SCT150,0.00,VWS V14.00,2013-07-20 17:14:00,
2013-07-20 13:19:00,87.8,78.1,29.69,West,276,3.0,7.0,73,0.00,,SCT150,0.00,VWS V14.00,2013-07-20 17:19:00,
2013-07-20 13:24:00,88.1,77.9,29.69,WNW,283,2.0,7.0,72,0.00,,SCT150,0.00,VWS V14.00,2013-07-20 17:24:00,
2013-07-20 13:29:00,89.0,78.4,29.69,SSW,205,1.0,7.0,71,0.00,,SCT150,0.00,VWS V14.00,2013-07-20 17:29:00,
2013-07-20 13:34:00,89.4,77.9,29.69,WSW,242,1.0,6.0,69,0.00,,SCT150,0.00,VWS V14.00,2013-07-20 17:34:00,
2013-07-20 13:39:00,89.8,78.7,29.69,NW,322,2.0,7.0,70,0.00,,SCT150,0.00,VWS V14.00,2013-07-20 17:39:00,
2013-07-20 13:44:00,90.0,77.1,29.69,South,174,3.0,9.0,66,0.00,,SCT150,0.00,VWS V14.00,2013-07-20 17:44:00,
2013-07-20 13:49:00,89.4,77.4,29.69,WNW,287,1.0,9.0,68,0.00,,SCT150,0.00,VWS V14.00,2013-07-20 17:49:00,
2013-07-20 13:54:00,89.6,77.6,29.69,SSW,211,2.0,9.0,68,0.00,,SCT150,0.00,VWS V14.00,2013-07-20 17:54:00,
2013-07-20 13:59:00,89.4,77.9,29.69,SSW,210,1.0,9.0,69,0.00,,SCT150,0.00,VWS V14.00,2013-07-20 17:59:00,
2013-07-20 14:04:00,89.6,77.6,29.69,NE,46,1.0,5.0,68,0.00,,SCT055,0.00,VWS V14.00,2013-07-20 18:04:00,
2013-07-20 14:09:00,90.0,78.0,29.69,NNW,338,3.0,7.0,68,0.00,,SCT055,0.00,VWS V14.00,2013-07-20 18:09:00,
2013-07-20 14:14:00,90.2,77.8,29.68,SSE,161,1.0,7.0,67,0.00,,SCT055,0.00,VWS V14.00,2013-07-20 18:14:00,
2013-07-20 14:19:00,90.4,77.9,29.68,SW,216,1.0,7.0,67,0.00,,SCT055,0.00,VWS V14.00,2013-07-20 18:19:00,
2013-07-20 14:24:00,90.6,78.1,29.68,SSW,202,3.0,7.0,67,0.00,,SCT055,0.00,VWS V14.00,2013-07-20 18:24:00,
2013-07-20 14:29:00,90.9,77.5,29.68,NNW,327,1.0,9.0,65,0.00,,SCT055,0.00,VWS V14.00,2013-07-20 18:29:00,
2013-07-20 14:34:00,90.6,77.2,29.68,SW,215,1.0,8.0,65,0.00,,SCT055,0.00,VWS V14.00,2013-07-20 18:34:00,
2013-07-20 14:40:00,90.4,75.6,29.68,WSW,253,1.0,8.0,62,0.00,,SCT055,0.00,VWS V14.00,2013-07-20 18:40:00,
2013-07-20 14:45:00,90.2,76.4,29.68,West,263,6.0,8.0,64,0.00,,SCT055,0.00,VWS V14.00,2013-07-20 18:45:00,
2013-07-20 14:51:00,90.3,76.5,29.68,North,353,2.0,8.0,64,0.00,,SCT055,0.00,VWS V14.00,2013-07-20 18:51:00,
2013-07-20 14:56:00,90.6,76.3,29.68,NNW,344,4.0,8.0,63,0.00,,SCT055,0.00,VWS V14.00,2013-07-20 18:56:00,
2013-07-20 15:01:00,90.0,75.2,29.68,South,175,3.0,4.0,62,0.00,,FEW065,0.00,VWS V14.00,2013-07-20 19:01:00,
2013-07-20 15:06:00,89.0,75.7,29.68,NW,313,1.0,5.0,65,0.00,,FEW065,0.00,VWS V14.00,2013-07-20 19:06:00,
2013-07-20 15:12:00,87.7,75.4,29.69,WNW,298,1.0,5.0,67,0.00,,FEW065,0.00,VWS V14.00,2013-07-20 19:12:00,
2013-07-20 15:17:00,86.6,75.2,29.69,SW,224,3.0,5.0,69,0.00,,FEW065,0.00,VWS V14.00,2013-07-20 19:17:00,
2013-07-20 15:22:00,85.5,76.3,29.69,SW,227,2.0,5.0,74,0.00,,FEW065,0.00,VWS V14.00,2013-07-20 19:22:00,
2013-07-20 15:28:00,83.9,75.9,29.70,NNW,332,2.0,9.0,77,0.00,,FEW065,0.00,VWS V14.00,2013-07-20 19:28:00,
2013-07-20 15:33:00,82.2,76.2,29.69,NW,304,1.0,4.0,82,0.00,,FEW065,0.00,VWS V14.00,2013-07-20 19:33:00,
2013-07-20 15:38:00,81.0,76.4,29.68,West,269,2.0,5.0,86,0.00,,FEW065,0.00,VWS V14.00,2013-07-20 19:38:00,
2013-07-20 15:43:00,80.7,77.2,29.68,West,261,0.0,5.0,89,0.00,,FEW065,0.00,VWS V14.00,2013-07-20 19:43:00,
2013-07-20 15:48:00,80.7,76.8,29.68,SW,229,2.0,7.0,88,0.00,,FEW065,0.00,VWS V14.00,2013-07-20 19:48:00,
2013-07-20 15:53:00,80.6,76.7,29.68,WSW,241,2.0,7.0,88,0.00,,FEW065,0.00,VWS V14.00,2013-07-20 19:53:00,
2013-07-20 15:58:00,80.7,76.8,29.69,WSW,244,2.0,7.0,88,0.00,,FEW065,0.00,VWS V14.00,2013-07-20 19:58:00,
2013-07-20 16:03:00,81.0,76.8,29.69,WNW,293,2.0,5.0,87,0.00,,CLR,0.00,VWS V14.00,2013-07-20 20:03:00,
2013-07-20 16:09:00,81.6,76.7,29.69,SW,224,2.0,5.0,85,0.00,,CLR,0.00,VWS V14.00,2013-07-20 20:09:00,
2013-07-20 16:14:00,82.0,77.4,29.69,SW,224,1.0,5.0,86,0.00,,CLR,0.00,VWS V14.00,2013-07-20 20:14:00,
2013-07-20 16:19:00,82.4,77.1,29.69,SSE,167,1.0,5.0,84,0.00,,CLR,0.00,VWS V14.00,2013-07-20 20:19:00,
2013-07-20 16:24:00,82.5,76.8,29.69,SSE,163,2.0,5.0,83,0.00,,CLR,0.00,VWS V14.00,2013-07-20 20:24:00,
2013-07-20 16:29:00,83.1,77.4,29.69,WSW,258,2.0,5.0,83,0.00,,CLR,0.00,VWS V14.00,2013-07-20 20:29:00,
2013-07-20 16:35:00,83.5,77.1,29.69,ENE,67,2.0,5.0,81,0.00,,CLR,0.00,VWS V14.00,2013-07-20 20:35:00,
2013-07-20 16:40:00,83.7,78.0,29.70,ENE,69,0.0,5.0,83,0.00,,CLR,0.00,VWS V14.00,2013-07-20 20:40:00,
2013-07-20 16:45:00,84.1,78.4,29.70,ENE,69,2.0,5.0,83,0.00,,CLR,0.00,VWS V14.00,2013-07-20 20:45:00,
2013-07-20 16:50:00,84.5,78.8,29.70,South,181,2.0,5.0,83,0.00,,CLR,0.00,VWS V14.00,2013-07-20 20:50:00,
2013-07-20 16:56:00,85.3,78.1,29.70,WSW,237,2.0,5.0,79,0.00,,CLR,0.00,VWS V14.00,2013-07-20 20:56:00,
2013-07-20 17:01:00,86.1,78.8,29.70,WSW,237,1.0,4.0,79,0.00,,FEW042,0.00,VWS V14.00,2013-07-20 21:01:00,
2013-07-20 17:07:00,85.9,77.1,29.71,WNW,301,0.0,11.0,75,0.00,,FEW042,0.00,VWS V14.00,2013-07-20 21:07:00,
2013-07-20 17:12:00,85.9,77.5,29.71,WNW,297,0.0,11.0,76,0.00,,FEW042,0.00,VWS V14.00,2013-07-20 21:12:00,
2013-07-20 17:17:00,85.6,77.2,29.71,WNW,302,1.0,11.0,76,0.00,,FEW042,0.00,VWS V14.00,2013-07-20 21:17:00,
2013-07-20 17:22:00,85.5,77.1,29.72,WNW,302,0.0,11.0,76,0.00,,FEW042,0.00,VWS V14.00,2013-07-20 21:22:00,
2013-07-20 17:27:00,85.1,76.3,29.71,WNW,302,1.0,11.0,75,0.00,,FEW042,0.00,VWS V14.00,2013-07-20 21:27:00,
2013-07-20 17:32:00,84.3,75.5,29.71,North,358,3.0,5.0,75,0.00,,FEW042,0.00,VWS V14.00,2013-07-20 21:32:00,
2013-07-20 17:37:00,83.7,76.5,29.72,NW,310,2.0,5.0,79,0.00,,FEW042,0.00,VWS V14.00,2013-07-20 21:37:00,
2013-07-20 17:42:00,83.1,75.9,29.72,NW,310,2.0,5.0,79,0.00,,FEW042,0.00,VWS V14.00,2013-07-20 21:42:00,
2013-07-20 17:48:00,82.5,75.7,29.72,NW,310,0.0,5.0,80,0.00,,FEW042,0.00,VWS V14.00,2013-07-20 21:48:00,
2013-07-20 17:53:00,82.4,76.4,29.72,NW,310,1.0,5.0,82,0.00,,FEW042,0.00,VWS V14.00,2013-07-20 21:53:00,
2013-07-20 17:58:00,82.2,76.5,29.72,NW,310,0.0,5.0,83,0.00,,FEW042,0.00,VWS V14.00,2013-07-20 21:58:00,
2013-07-20 18:04:00,81.7,76.0,29.72,NW,309,0.0,3.0,83,0.00,,CLR,0.00,VWS V14.00,2013-07-20 22:04:00,
2013-07-20 18:09:00,81.6,75.6,29.72,NW,304,2.0,5.0,82,0.00,,CLR,0.00,VWS V14.00,2013-07-20 22:09:00,
2013-07-20 18:14:00,81.8,75.8,29.72,NW,315,1.0,5.0,82,0.00,,CLR,0.00,VWS V14.00,2013-07-20 22:14:00,
2013-07-20 18:19:00,81.8,75.8,29.71,NW,315,0.0,5.0,82,0.00,,CLR,0.00,VWS V14.00,2013-07-20 22:19:00,
2013-07-20 18:24:00,81.7,75.7,29.72,NW,315,1.0,5.0,82,0.00,,CLR,0.00,VWS V14.00,2013-07-20 22:24:00,
2013-07-20 18:29:00,81.8,76.1,29.72,NW,315,0.0,5.0,83,0.00,,CLR,0.00,VWS V14.00,2013-07-20 22:29:00,
2013-07-20 18:34:00,81.6,76.3,29.72,NW,315,1.0,2.0,84,0.00,,CLR,0.00,VWS V14.00,2013-07-20 22:34:00,
2013-07-20 18:40:00,81.6,76.7,29.73,NW,315,0.0,2.0,85,0.00,,CLR,0.00,VWS V14.00,2013-07-20 22:40:00,
2013-07-20 18:46:00,81.4,76.8,29.73,NW,315,1.0,2.0,86,0.00,,CLR,0.00,VWS V14.00,2013-07-20 22:46:00,
2013-07-20 18:51:00,81.2,76.6,29.72,NW,315,2.0,2.0,86,0.00,,CLR,0.00,VWS V14.00,2013-07-20 22:51:00,
2013-07-20 18:57:00,80.6,76.0,29.72,NW,315,0.0,3.0,86,0.00,,CLR,0.00,VWS V14.00,2013-07-20 22:57:00,
2013-07-20 19:03:00,80.1,75.9,29.72,NW,315,0.0,2.0,87,0.00,,CLR,0.00,VWS V14.00,2013-07-20 23:03:00,
2013-07-20 19:08:00,79.5,75.6,29.72,NW,315,0.0,3.0,88,0.00,,CLR,0.00,VWS V14.00,2013-07-20 23:08:00,
2013-07-20 19:13:00,79.2,75.3,29.72,NW,315,1.0,3.0,88,0.00,,CLR,0.00,VWS V14.00,2013-07-20 23:13:00,
2013-07-20 19:18:00,78.8,74.9,29.72,NW,315,2.0,3.0,88,0.00,,CLR,0.00,VWS V14.00,2013-07-20 23:18:00,
2013-07-20 19:23:00,78.6,74.8,29.73,NW,315,1.0,3.0,88,0.00,,CLR,0.00,VWS V14.00,2013-07-20 23:23:00,
2013-07-20 19:28:00,78.4,74.6,29.73,NW,315,1.0,3.0,88,0.00,,CLR,0.00,VWS V14.00,2013-07-20 23:28:00,
2013-07-20 19:33:00,78.4,74.9,29.73,NW,315,0.0,2.0,89,0.00,,CLR,0.00,VWS V14.00,2013-07-20 23:33:00,
2013-07-20 19:39:00,78.4,74.9,29.73,NW,315,1.0,2.0,89,0.00,,CLR,0.00,VWS V14.00,2013-07-20 23:39:00,
2013-07-20 19:44:00,78.2,74.7,29.73,NW,315,1.0,2.0,89,0.00,,CLR,0.00,VWS V14.00,2013-07-20 23:44:00,
2013-07-20 19:49:00,78.2,75.0,29.73,NW,315,0.0,2.0,90,0.00,,CLR,0.00,VWS V14.00,2013-07-20 23:49:00,
2013-07-20 19:54:00,78.0,74.8,29.74,NW,315,0.0,2.0,90,0.00,,CLR,0.00,VWS V14.00,2013-07-20 23:54:00,
2013-07-20 19:59:00,78.0,74.5,29.74,NW,315,0.0,2.0,89,0.00,,CLR,0.00,VWS V14.00,2013-07-20 23:59:00,
2013-07-20 20:05:00,77.9,74.4,29.74,NW,315,0.0,1.0,89,0.00,,SCT065,0.00,VWS V14.00,2013-07-21 00:05:00,
2013-07-20 20:10:00,77.9,74.1,29.75,NW,315,0.0,1.0,88,0.00,,SCT065,0.00,VWS V14.00,2013-07-21 00:10:00,
2013-07-20 20:15:00,77.9,74.4,29.75,NW,315,0.0,1.0,89,0.00,,SCT065,0.00,VWS V14.00,2013-07-21 00:15:00,
2013-07-20 20:20:00,77.9,74.4,29.75,NW,315,0.0,1.0,89,0.00,,SCT065,0.00,VWS V14.00,2013-07-21 00:20:00,
2013-07-20 20:25:00,77.9,74.7,29.76,NW,315,0.0,2.0,90,0.00,,SCT065,0.00,VWS V14.00,2013-07-21 00:25:00,
2013-07-20 20:30:00,77.9,74.4,29.76,North,351,2.0,5.0,89,0.00,,SCT065,0.00,VWS V14.00,2013-07-21 00:30:00,
2013-07-20 20:36:00,78.4,73.9,29.76,NW,304,4.0,7.0,86,0.00,,SCT065,0.00,VWS V14.00,2013-07-21 00:36:00,
2013-07-20 20:41:00,79.0,74.1,29.76,North,0,1.0,9.0,85,0.00,,SCT065,0.00,VWS V14.00,2013-07-21 00:41:00,
2013-07-20 20:46:00,79.0,73.8,29.77,NW,318,5.0,9.0,84,0.00,,SCT065,0.00,VWS V14.00,2013-07-21 00:46:00,
2013-07-20 20:51:00,79.2,73.2,29.77,NW,320,2.0,9.0,82,0.00,,SCT065,0.00,VWS V14.00,2013-07-21 00:51:00,
2013-07-20 20:56:00,79.3,72.6,29.78,WNW,285,1.0,9.0,80,0.00,,SCT065,0.00,VWS V14.00,2013-07-21 00:56:00,
2013-07-20 21:01:00,79.3,72.2,29.78,NW,315,2.0,4.0,79,0.00,,CLR,0.00,VWS V14.00,2013-07-21 01:01:00,
2013-07-20 21:06:00,79.3,72.2,29.78,NW,325,2.0,5.0,79,0.00,,CLR,0.00,VWS V14.00,2013-07-21 01:06:00,
2013-07-20 21:11:00,79.3,72.2,29.78,NNW,333,0.0,5.0,79,0.00,,CLR,0.00,VWS V14.00,2013-07-21 01:11:00,
2013-07-20 21:17:00,79.2,72.1,29.78,NNW,333,0.0,5.0,79,0.00,,CLR,0.00,VWS V14.00,2013-07-21 01:17:00,
2013-07-20 21:22:00,79.0,72.3,29.77,NNW,333,1.0,5.0,80,0.00,,CLR,0.00,VWS V14.00,2013-07-21 01:22:00,
2013-07-20 21:27:00,78.6,71.9,29.77,NNW,333,1.0,5.0,80,0.00,,CLR,0.00,VWS V14.00,2013-07-21 01:27:00,
2013-07-20 21:32:00,78.2,71.5,29.78,NNW,333,1.0,1.0,80,0.00,,CLR,0.00,VWS V14.00,2013-07-21 01:32:00,
2013-07-20 21:37:00,77.9,72.0,29.78,NNW,333,1.0,3.0,82,0.00,,CLR,0.00,VWS V14.00,2013-07-21 01:37:00,
2013-07-20 21:42:00,77.2,71.3,29.78,NNW,333,2.0,3.0,82,0.00,,CLR,0.00,VWS V14.00,2013-07-21 01:42:00,
2013-07-20 21:48:00,76.5,71.0,29.79,NNW,333,0.0,3.0,83,0.00,,CLR,0.00,VWS V14.00,2013-07-21 01:48:00,
2013-07-20 21:53:00,76.1,71.3,29.78,NNW,335,1.0,4.0,85,0.00,,CLR,0.00,VWS V14.00,2013-07-21 01:53:00,
2013-07-20 21:58:00,75.7,71.2,29.79,NNW,335,1.0,4.0,86,0.00,,CLR,0.00,VWS V14.00,2013-07-21 01:58:00,
2013-07-20 22:03:00,75.4,71.3,29.79,NNW,335,0.0,2.0,87,0.00,,FEW120,0.00,VWS V14.00,2013-07-21 02:03:00,
2013-07-20 22:09:00,74.9,71.1,29.79,NNW,335,1.0,3.0,88,0.00,,FEW120,0.00,VWS V14.00,2013-07-21 02:09:00,
2013-07-20 22:14:00,74.5,70.7,29.80,NNW,335,1.0,3.0,88,0.00,,FEW120,0.00,VWS V14.00,2013-07-21 02:14:00,
2013-07-20 22:19:00,74.3,70.5,29.79,NNW,335,0.0,3.0,88,0.00,,FEW120,0.00,VWS V14.00,2013-07-21 02:19:00,
2013-07-20 22:24:00,74.2,70.1,29.79,NNW,335,0.0,3.0,87,0.00,,FEW120,0.00,VWS V14.00,2013-07-21 02:24:00,
2013-07-20 22:29:00,74.2,70.1,29.80,NNW,335,0.0,3.0,87,0.00,,FEW120,0.00,VWS V14.00,2013-07-21 02:29:00,
2013-07-20 22:34:00,74.0,70.2,29.80,NNW,335,0.0,2.0,88,0.00,,FEW120,0.00,VWS V14.00,2013-07-21 02:34:00,
2013-07-20 22:39:00,73.9,70.1,29.81,NNW,335,1.0,2.0,88,0.00,,FEW120,0.00,VWS V14.00,2013-07-21 02:39:00,
2013-07-20 22:44:00,73.7,69.9,29.81,NNW,335,2.0,3.0,88,0.00,,FEW120,0.00,VWS V14.00,2013-07-21 02:44:00,
2013-07-20 22:50:00,73.3,69.2,29.81,NNW,335,3.0,3.0,87,0.00,,FEW120,0.00,VWS V14.00,2013-07-21 02:50:00,
2013-07-20 22:55:00,73.3,69.5,29.81,NNW,335,1.0,3.0,88,0.00,,FEW120,0.00,VWS V14.00,2013-07-21 02:55:00,
2013-07-20 23:00:00,73.1,69.3,29.81,NNW,335,0.0,0.0,88,0.00,,CLR,0.00,VWS V14.00,2013-07-21 03:00:00,
2013-07-20 23:06:00,73.0,68.9,29.81,NNW,335,1.0,2.0,87,0.00,,CLR,0.00,VWS V14.00,2013-07-21 03:06:00,
2013-07-20 23:11:00,72.8,68.7,29.81,NNW,335,0.0,3.0,87,0.00,,CLR,0.00,VWS V14.00,2013-07-21 03:11:00,
2013-07-20 23:16:00,72.6,68.8,29.81,NNW,335,0.0,3.0,88,0.00,,CLR,0.00,VWS V14.00,2013-07-21 03:16:00,
2013-07-20 23:21:00,72.5,68.4,29.82,NNW,335,0.0,3.0,87,0.00,,CLR,0.00,VWS V14.00,2013-07-21 03:21:00,
2013-07-20 23:26:00,72.1,68.3,29.82,NNW,335,0.0,3.0,88,0.00,,CLR,0.00,VWS V14.00,2013-07-21 03:26:00,
2013-07-20 23:31:00,72.0,68.3,29.82,NNW,335,0.0,2.0,88,0.00,,CLR,0.00,VWS V14.00,2013-07-21 03:31:00,
2013-07-20 23:37:00,71.6,67.9,29.82,NNW,335,1.0,3.0,88,0.00,,CLR,0.00,VWS V14.00,2013-07-21 03:37:00,
2013-07-20 23:42:00,71.4,67.7,29.83,NNW,335,1.0,3.0,88,0.00,,CLR,0.00,VWS V14.00,2013-07-21 03:42:00,
2013-07-20 23:48:00,71.4,67.3,29.83,NNW,335,1.0,3.0,87,0.00,,CLR,0.00,VWS V14.00,2013-07-21 03:48:00,
2013-07-20 23:53:00,71.3,67.2,29.83,NNW,335,2.0,4.0,87,0.00,,CLR,0.00,VWS V14.00,2013-07-21 03:53:00,
2013-07-20 23:58:00,71.1,66.0,29.83,NNW,335,2.0,4.0,84,0.00,,CLR,0.00,VWS V14.00,2013-07-21 03:58:00,